createdAt,value
2022-10-18T00:02:22.433Z,82.10
2022-10-18T00:05:50.584Z,82.20
2022-10-18T00:09:15.346Z,82.20
2022-10-18T00:12:39.733Z,82.40
2022-10-18T00:16:05.946Z,82.30
2022-10-18T00:19:31.400Z,82.20
2022-10-18T00:22:56.296Z,82.20
2022-10-18T00:26:21.655Z,81.90
2022-10-18T00:29:45.294Z,82.00
2022-10-18T00:33:09.030Z,82.20
2022-10-18T00:36:35.629Z,82.30
2022-10-18T00:40:00.348Z,82.50
2022-10-18T00:43:24.021Z,82.50
2022-10-18T00:46:49.641Z,82.40
2022-10-18T00:50:14.403Z,82.20
2022-10-18T00:53:40.470Z,81.80
2022-10-18T00:57:04.442Z,81.80
2022-10-18T01:00:28.157Z,81.80
2022-10-18T01:03:53.605Z,82.00
2022-10-18T01:07:39.786Z,82.10
2022-10-18T01:11:29.361Z,81.90
2022-10-18T01:15:04.187Z,82.70
2022-10-18T01:18:33.346Z,82.20
2022-10-18T01:22:01.425Z,82.30
2022-10-18T01:25:40.402Z,82.40
2022-10-18T01:29:16.318Z,82.40
2022-10-18T01:32:47.113Z,82.30
2022-10-18T01:36:22.241Z,82.20
2022-10-18T01:39:48.361Z,82.10
2022-10-18T01:43:13.654Z,81.90
2022-10-18T01:46:42.605Z,81.90
2022-10-18T01:50:09.453Z,81.90
2022-10-18T01:53:35.052Z,81.70
2022-10-18T01:57:04.543Z,82.10
2022-10-18T02:00:36.859Z,81.70
2022-10-18T02:04:08.073Z,81.60
2022-10-18T02:07:38.303Z,81.50
2022-10-18T02:11:05.155Z,81.30
2022-10-18T02:14:30.028Z,81.30
2022-10-18T02:17:55.414Z,81.20
2022-10-18T02:21:22.133Z,80.80
2022-10-18T02:24:53.003Z,80.90
2022-10-18T02:28:17.319Z,80.70
2022-10-18T02:31:45.760Z,80.70
2022-10-18T02:35:16.670Z,80.60
2022-10-18T02:38:43.244Z,80.60
2022-10-18T02:42:10.960Z,80.60
2022-10-18T02:45:35.262Z,81.60
2022-10-18T02:48:59.099Z,80.90
2022-10-18T02:52:23.306Z,81.80
2022-10-18T02:55:47.129Z,81.00
2022-10-18T02:59:12.694Z,81.00
2022-10-18T03:02:37.177Z,80.70
2022-10-18T03:06:01.206Z,81.00
2022-10-18T03:09:25.325Z,80.80
2022-10-18T03:12:49.205Z,80.80
2022-10-18T03:16:14.569Z,81.00
2022-10-18T03:19:39.746Z,80.90
2022-10-18T03:23:04.275Z,80.60
2022-10-18T03:26:28.216Z,80.50
2022-10-18T03:29:52.210Z,80.50
2022-10-18T03:33:17.598Z,80.30
2022-10-18T03:36:41.477Z,80.30
2022-10-18T03:40:06.498Z,80.00
2022-10-18T03:43:30.342Z,79.90
2022-10-18T03:46:54.350Z,80.10
2022-10-18T03:50:20.336Z,80.40
2022-10-18T03:53:44.216Z,80.50
2022-10-18T03:57:08.306Z,80.30
2022-10-18T04:00:35.729Z,80.60
2022-10-18T04:03:59.302Z,80.70
2022-10-18T04:07:25.920Z,80.90
2022-10-18T04:10:50.308Z,81.00
2022-10-18T04:14:16.688Z,80.90
2022-10-18T04:17:40.256Z,81.10
2022-10-18T04:21:03.790Z,81.20
2022-10-18T04:24:28.804Z,81.30
2022-10-18T04:27:55.601Z,81.10
2022-10-18T04:31:19.317Z,81.20
2022-10-18T04:34:45.382Z,81.40
2022-10-18T04:38:09.310Z,81.70
2022-10-18T04:41:34.632Z,81.80
2022-10-18T04:44:58.375Z,82.80
2022-10-18T04:48:22.482Z,82.10
2022-10-18T04:51:46.601Z,82.20
2022-10-18T04:55:10.618Z,82.20
2022-10-18T04:58:35.725Z,82.30
2022-10-18T05:01:59.407Z,82.40
2022-10-18T05:05:27.033Z,82.70
2022-10-18T05:08:57.364Z,82.90
2022-10-18T05:12:22.152Z,83.10
2022-10-18T05:15:48.732Z,83.20
2022-10-18T05:19:12.432Z,83.40
2022-10-18T05:22:36.336Z,83.60
2022-10-18T05:26:03.708Z,83.40
2022-10-18T05:32:57.867Z,83.70
2022-10-18T05:36:22.640Z,83.60
2022-10-18T05:39:46.747Z,83.50
2022-10-18T05:43:10.467Z,83.50
2022-10-18T05:46:35.313Z,83.60
2022-10-18T05:50:00.235Z,83.70
2022-10-18T05:53:36.348Z,83.40
2022-10-18T05:57:00.807Z,83.30
2022-10-18T06:00:24.589Z,83.30
2022-10-18T06:03:48.714Z,83.00
2022-10-18T06:07:14.083Z,82.50
2022-10-18T06:10:40.797Z,82.50
2022-10-18T06:14:05.083Z,82.70
2022-10-18T06:17:31.685Z,83.10
2022-10-18T06:20:58.874Z,83.00
2022-10-18T06:24:23.827Z,82.90
2022-10-18T06:27:47.398Z,82.10
2022-10-18T06:31:12.408Z,82.20
2022-10-18T06:34:36.043Z,82.40
2022-10-18T06:37:59.574Z,82.00
2022-10-18T06:41:24.857Z,82.00
2022-10-18T06:44:49.739Z,82.00
2022-10-18T06:48:13.552Z,81.40
2022-10-18T06:51:38.242Z,81.50
2022-10-18T06:55:04.134Z,81.30
2022-10-18T06:58:31.401Z,81.40
2022-10-18T07:01:54.958Z,81.40
2022-10-18T07:05:18.789Z,81.10
2022-10-18T07:08:42.764Z,81.50
2022-10-18T07:12:07.331Z,81.40
2022-10-18T07:18:57.098Z,81.20
2022-10-18T07:22:20.648Z,81.30
2022-10-18T07:25:44.225Z,80.80
2022-10-18T07:29:09.838Z,80.90
2022-10-18T07:32:34.841Z,80.50
2022-10-18T07:36:02.637Z,80.30
2022-10-18T07:39:26.253Z,80.20
2022-10-18T07:42:49.822Z,79.90
2022-10-18T07:46:14.418Z,79.50
2022-10-18T07:49:39.390Z,79.50
2022-10-18T07:53:02.920Z,79.30
2022-10-18T07:56:26.562Z,79.50
2022-10-18T07:59:56.342Z,79.10
2022-10-18T08:03:20.717Z,78.90
2022-10-18T08:06:45.696Z,79.00
2022-10-18T08:10:10.029Z,79.20
2022-10-18T08:13:34.191Z,79.20
2022-10-18T08:16:57.848Z,79.40
2022-10-18T08:20:30.357Z,79.60
2022-10-18T08:23:56.142Z,79.70
2022-10-18T08:27:19.850Z,80.20
2022-10-18T08:30:43.415Z,80.30
2022-10-18T08:34:06.946Z,80.60
2022-10-18T08:37:30.995Z,80.80
2022-10-18T08:40:56.100Z,80.70
2022-10-18T08:44:21.504Z,80.90
2022-10-18T08:47:49.025Z,81.10
2022-10-18T08:51:19.626Z,80.70
2022-10-18T08:54:53.589Z,80.80
2022-10-18T08:58:20.849Z,80.30
2022-10-18T09:02:01.627Z,80.90
2022-10-18T09:05:31.816Z,83.00
2022-10-18T09:09:12.258Z,77.20
2022-10-18T09:12:55.673Z,75.00
2022-10-18T09:16:27.588Z,73.70
2022-10-18T09:20:01.922Z,72.90
2022-10-18T09:23:39.314Z,73.10
2022-10-18T09:27:06.976Z,73.40
2022-10-18T09:30:42.492Z,74.10
2022-10-18T09:34:12.318Z,74.20
2022-10-18T09:37:36.449Z,74.00
2022-10-18T09:41:03.332Z,74.10
2022-10-18T09:44:30.098Z,74.40
2022-10-18T09:48:02.101Z,74.30
2022-10-18T09:51:31.661Z,74.50
2022-10-18T09:54:59.079Z,73.80
2022-10-18T09:58:25.302Z,74.00
2022-10-18T10:01:48.888Z,74.40
2022-10-18T10:05:14.236Z,74.30
2022-10-18T10:08:42.965Z,74.60
2022-10-18T10:12:06.709Z,75.00
2022-10-18T10:15:35.373Z,75.10
2022-10-18T10:19:03.047Z,75.40
2022-10-18T10:22:30.438Z,75.60
2022-10-18T10:25:57.215Z,74.00
2022-10-18T10:29:51.275Z,73.00
2022-10-18T10:33:33.460Z,73.00
2022-10-18T10:36:57.003Z,72.70
2022-10-18T10:40:26.475Z,72.00
2022-10-18T10:43:53.557Z,72.60
2022-10-18T10:47:29.236Z,67.90
2022-10-18T10:51:00.949Z,66.90
2022-10-18T10:54:27.442Z,65.00
2022-10-18T10:57:53.271Z,66.90
2022-10-18T11:01:34.053Z,66.90
2022-10-18T11:05:16.030Z,68.30
2022-10-18T11:08:43.350Z,68.80
2022-10-18T11:12:19.600Z,69.00
2022-10-18T11:15:48.222Z,69.70
2022-10-18T11:19:33.854Z,70.40
2022-10-18T11:23:03.777Z,70.50
2022-10-18T11:26:42.002Z,70.50
2022-10-18T11:30:30.603Z,68.20
2022-10-18T11:34:10.188Z,66.90
2022-10-18T11:37:48.796Z,66.60
2022-10-18T11:41:26.060Z,65.30
2022-10-18T11:44:58.906Z,65.10
2022-10-18T11:48:50.074Z,64.40
2022-10-18T11:52:20.229Z,65.10
2022-10-18T11:55:56.120Z,63.90
2022-10-18T11:59:34.132Z,63.10
2022-10-18T12:03:23.430Z,62.50
2022-10-18T12:06:49.629Z,62.50
2022-10-18T12:10:26.329Z,62.90
2022-10-18T12:14:05.488Z,62.70
2022-10-18T12:17:44.024Z,61.60
2022-10-18T12:21:12.669Z,60.10
2022-10-18T12:24:37.933Z,59.20
2022-10-18T12:28:06.935Z,60.00
2022-10-18T12:31:37.814Z,60.40
2022-10-18T12:35:05.691Z,59.90
2022-10-18T12:38:31.555Z,58.60
2022-10-18T12:41:56.625Z,58.00
2022-10-18T12:45:29.166Z,58.30
2022-10-18T12:49:05.089Z,59.10
2022-10-18T12:52:31.874Z,58.70
2022-10-18T12:55:55.777Z,55.90
2022-10-18T12:59:53.719Z,55.80
2022-10-18T13:04:00.639Z,55.40
2022-10-18T13:07:43.103Z,54.80
2022-10-18T13:11:30.257Z,54.30
2022-10-18T13:15:12.545Z,53.60
2022-10-18T13:18:54.101Z,52.70
2022-10-18T13:22:29.481Z,51.70
2022-10-18T13:26:03.668Z,52.40
2022-10-18T13:29:46.555Z,51.80
2022-10-18T13:33:27.385Z,50.80
2022-10-18T13:36:58.392Z,50.60
2022-10-18T13:40:26.792Z,50.30
2022-10-18T13:44:18.613Z,50.10
2022-10-18T13:47:42.220Z,50.20
2022-10-18T13:51:24.257Z,50.40
2022-10-18T13:55:02.329Z,50.50
2022-10-18T13:58:35.099Z,50.80
2022-10-18T14:02:36.452Z,50.60
2022-10-18T14:06:09.620Z,50.80
2022-10-18T14:09:45.074Z,50.60
2022-10-18T14:13:18.878Z,50.80
2022-10-18T14:16:48.450Z,50.60
2022-10-18T14:20:27.222Z,50.80
2022-10-18T14:23:54.185Z,50.90
2022-10-18T14:27:19.963Z,50.50
2022-10-18T14:30:55.509Z,50.50
2022-10-18T14:34:19.293Z,50.60
2022-10-18T14:37:44.892Z,50.80
2022-10-18T14:41:16.338Z,50.10
2022-10-18T14:44:39.902Z,47.70
2022-10-18T14:48:07.845Z,47.70
2022-10-18T14:51:35.981Z,48.10
2022-10-18T14:55:03.122Z,48.50
2022-10-18T14:58:26.842Z,48.40
2022-10-18T15:01:56.546Z,48.40
2022-10-18T15:05:22.782Z,48.30
2022-10-18T15:08:48.631Z,49.10
2022-10-18T15:12:15.920Z,48.90
2022-10-18T15:15:40.809Z,48.90
2022-10-18T15:19:06.793Z,49.30
2022-10-18T15:22:33.315Z,49.30
2022-10-18T15:26:04.087Z,49.10
2022-10-18T15:29:35.261Z,49.40
2022-10-18T15:33:01.206Z,49.60
2022-10-18T15:36:31.076Z,50.00
2022-10-18T15:40:20.384Z,50.10
2022-10-18T15:43:44.044Z,50.10
2022-10-18T15:47:21.748Z,50.30
2022-10-18T15:50:47.965Z,50.30
2022-10-18T15:54:18.977Z,50.50
2022-10-18T15:57:42.562Z,50.30
2022-10-18T16:01:08.297Z,50.60
2022-10-18T16:04:34.321Z,51.10
2022-10-18T16:07:58.082Z,51.10
2022-10-18T16:11:24.309Z,51.30
2022-10-18T16:14:47.922Z,51.30
2022-10-18T16:18:17.047Z,51.70
2022-10-18T16:21:42.841Z,52.20
2022-10-18T16:25:07.089Z,52.10
2022-10-18T16:28:31.868Z,52.30
2022-10-18T16:31:57.967Z,52.60
2022-10-18T16:35:21.805Z,53.10
2022-10-18T16:38:48.053Z,53.50
2022-10-18T16:42:11.607Z,53.90
2022-10-18T16:45:37.613Z,54.30
2022-10-18T16:49:01.878Z,54.50
2022-10-18T16:52:25.562Z,54.60
2022-10-18T16:55:54.319Z,54.80
2022-10-18T16:59:23.961Z,54.70
2022-10-18T17:02:51.294Z,54.90
2022-10-18T17:06:17.371Z,55.20
2022-10-18T17:09:40.931Z,55.40
2022-10-18T17:13:05.889Z,55.60
2022-10-18T17:16:32.004Z,55.90
2022-10-18T17:19:55.810Z,56.20
2022-10-18T17:23:19.663Z,56.40
2022-10-18T17:26:43.370Z,56.90
2022-10-18T17:30:09.711Z,57.20
2022-10-18T17:33:33.285Z,57.30
2022-10-18T17:36:56.912Z,57.70
2022-10-18T17:40:23.772Z,58.40
2022-10-18T17:43:47.957Z,58.40
2022-10-18T17:47:13.147Z,58.60
2022-10-18T17:50:36.714Z,58.80
2022-10-18T17:54:00.333Z,59.30
2022-10-18T17:57:24.198Z,59.30
2022-10-18T18:00:47.769Z,59.50
2022-10-18T18:04:13.418Z,59.60
2022-10-18T18:07:37.180Z,59.90
2022-10-18T18:11:00.809Z,60.30
2022-10-18T18:14:24.699Z,60.50
2022-10-18T18:17:56.686Z,60.70
2022-10-18T18:21:23.455Z,60.80
2022-10-18T18:24:47.021Z,61.10
2022-10-18T18:28:10.753Z,61.50
2022-10-18T18:31:38.794Z,61.40
2022-10-18T18:35:06.845Z,61.70
2022-10-18T18:38:32.620Z,61.70
2022-10-18T18:41:57.170Z,61.70
2022-10-18T18:45:20.706Z,61.80
2022-10-18T18:48:44.447Z,62.00
2022-10-18T18:52:08.462Z,63.30
2022-10-18T18:55:34.514Z,62.70
2022-10-18T18:59:00.240Z,62.60
2022-10-18T19:02:24.026Z,62.60
2022-10-18T19:05:47.702Z,63.80
2022-10-18T19:09:19.074Z,63.00
2022-10-18T19:12:44.058Z,63.90
2022-10-18T19:16:26.086Z,63.30
2022-10-18T19:19:50.414Z,63.40
2022-10-18T19:23:14.349Z,63.40
2022-10-18T19:26:44.515Z,63.70
2022-10-18T19:30:12.269Z,64.20
2022-10-18T19:33:48.194Z,64.50
2022-10-18T19:37:20.101Z,65.10
2022-10-18T19:40:43.688Z,65.30
2022-10-18T19:44:07.581Z,65.30
2022-10-18T19:47:32.644Z,65.60
2022-10-18T19:50:56.240Z,65.80
2022-10-18T19:54:19.841Z,65.80
2022-10-18T19:57:43.591Z,66.10
2022-10-18T20:01:07.169Z,66.50
2022-10-18T20:04:34.702Z,66.90
2022-10-18T20:07:58.705Z,66.90
2022-10-18T20:11:23.690Z,67.40
2022-10-18T20:14:47.226Z,67.50
2022-10-18T20:18:11.042Z,67.40
2022-10-18T20:21:37.618Z,67.70
2022-10-18T20:25:01.277Z,68.00
2022-10-18T20:28:25.374Z,67.80
2022-10-18T20:31:48.978Z,68.00
2022-10-18T20:35:12.738Z,68.20
2022-10-18T20:38:39.332Z,68.30
2022-10-18T20:42:02.908Z,68.50
2022-10-18T20:45:26.552Z,68.50
2022-10-18T20:48:51.353Z,68.50
2022-10-18T20:52:15.199Z,68.50
2022-10-18T20:55:40.222Z,68.60
2022-10-18T20:59:06.338Z,68.80
2022-10-18T21:02:30.030Z,68.80
2022-10-18T21:05:53.576Z,68.90
2022-10-18T21:09:19.274Z,69.00
2022-10-18T21:12:44.316Z,69.30
2022-10-18T21:16:09.122Z,69.40
2022-10-18T21:19:32.764Z,69.50
2022-10-18T21:22:57.286Z,69.60
2022-10-18T21:26:23.903Z,69.60
2022-10-18T21:29:50.622Z,69.60
2022-10-18T21:33:14.321Z,69.80
2022-10-18T21:36:39.221Z,69.80
2022-10-18T21:40:05.799Z,70.00
2022-10-18T21:43:30.031Z,70.00
2022-10-18T21:46:56.856Z,70.10
2022-10-18T21:50:20.625Z,70.10
2022-10-18T21:53:45.497Z,70.50
2022-10-18T21:57:09.666Z,70.70
2022-10-18T22:00:33.602Z,70.80
2022-10-18T22:04:00.682Z,70.90
2022-10-18T22:07:24.250Z,70.90
2022-10-18T22:10:48.641Z,71.30
2022-10-18T22:14:12.981Z,71.70
2022-10-18T22:17:36.927Z,71.80
2022-10-18T22:21:04.894Z,71.70
2022-10-18T22:24:28.748Z,71.80
2022-10-18T22:27:52.714Z,71.80
2022-10-18T22:31:18.147Z,72.00
2022-10-18T22:34:42.894Z,72.10
2022-10-18T22:38:08.078Z,72.00
2022-10-18T22:41:31.974Z,72.10
2022-10-18T22:44:55.705Z,72.40
2022-10-18T22:48:19.724Z,72.90
2022-10-18T22:51:43.736Z,73.00
2022-10-18T22:55:09.686Z,73.30
2022-10-18T22:58:34.254Z,73.70
2022-10-18T23:01:58.799Z,74.00
2022-10-18T23:05:26.369Z,74.20
2022-10-18T23:08:53.553Z,74.20
2022-10-18T23:12:18.484Z,74.10
2022-10-18T23:15:44.105Z,74.30
2022-10-18T23:19:07.744Z,74.20
2022-10-18T23:22:31.991Z,74.30
2022-10-18T23:25:56.729Z,74.30
2022-10-18T23:29:22.386Z,74.40
2022-10-18T23:32:46.032Z,74.40
2022-10-18T23:36:10.354Z,74.30
2022-10-18T23:39:34.726Z,74.20
2022-10-18T23:42:58.877Z,74.10
2022-10-18T23:46:26.228Z,74.00
2022-10-18T23:49:53.109Z,74.10
2022-10-18T23:53:16.866Z,73.90
2022-10-18T23:56:40.764Z,74.10
